METAR AND TAF INFORMATION
METAR FOR PWAK
ADDS - METARS form results

(0505 UTC 04 April 2020)
Data provider http://aviationweather.gov/metar/data/
 
METAR text: PWAK 040458Z AUTO 07017KT 8000 HZ FEW026 28/20 A2994 RMK AO2 SLP145 T02830200 $
Conditions at: PWAK (WAKE ISLAND AIRF, UM, US) observed 0458 UTC 04 April 2020
Temperature: 28.3°C (83°F)
Dewpoint: 20.0°C (68°F) [RH = 61%]
Pressure (altimeter): 29.94 inches Hg (1014.0 mb)
[Sea-level pressure: 1014.5 mb]
Winds: from the ENE (70 degrees) at 20 MPH (17 knots; 8.7 m/s)
Visibility: 5 miles ( 8 km)
Ceiling: at least 12,000 feet AGL
Clouds: few clouds at 2600 feet AGL
Weather: HZ  (haze)
SOME DATA ABOVE MAY BE INACCURATE!!!
"$" is an indication the sensor requires maintenance

METAR text: PWAK 040438Z AUTO 06017KT 9000 HZ SCT025 28/20 A2994 RMK AO2 SLP145
Conditions at: PWAK (WAKE ISLAND AIRF, UM, US) observed 0438 UTC 04 April 2020
Temperature: 28.0°C (82°F)
Dewpoint: 20.0°C (68°F) [RH = 62%]
Pressure (altimeter): 29.94 inches Hg (1014.0 mb)
[Sea-level pressure: 1014.5 mb]
Winds: from the ENE (60 degrees) at 20 MPH (17 knots; 8.7 m/s)
Visibility: 6 miles ( 9 km)
Ceiling: at least 12,000 feet AGL
Clouds: scattered clouds at 2500 feet AGL
Weather: HZ  (haze)

Forecast for: PWAK (WAKE ISLAND AIRF, UM, US)
Text: TAF PWAK 032200Z 0322/0504 07020KT 9999 FEW026 510043 QNH2997INS
Forecast period: 2200 UTC 03 April 2020 to 0300 UTC 05 April 2020
Forecast type: FROM: standard forecast or significant change
Winds: from the ENE (70 degrees) at 23 MPH (20 knots; 10.3 m/s)
Visibility: 6 or more miles 10+ km)
Ceiling: at least 12,000 feet AGL
Clouds: few clouds at 2600 feet AGL
Weather: no significant weather forecast for this period
Text: BECMG 0503/0504 06015KT 9999 FEW030 QNH2999INS TX25/0408Z TN24/0417Z FOR MIL USE ONLY
Forecast period: 0300 to 0400 UTC 05 April 2020
Forecast type: BECOMING: Conditions expected to become as follows by 0400 UTC 05 April 2020
Winds: from the ENE (60 degrees) at 17 MPH (15 knots; 7.7 m/s)
Visibility: 6 or more miles 10+ km)
Ceiling: at least 12,000 feet AGL
Clouds: few clouds at 3000 feet AGL
Weather: no significant weather forecast for this period

 AIRPORT MAP

 RUNWAY INFORMATION
Runway 10 Runway length 9843 ft Runway width 150 ft
Runway elevation 14 ft Runway displaced threshold 0 ft Runway heading 95
Runway 28 Runway length 9843 ft Runway width 150 ft
Runway elevation 12 ft Runway displaced threshold 0 ft Runway heading 275

 AIRPORT FREQUENCIES
Type A/G Name OPS AAS Frequency 128 MHZ
Type RDO Name OAKLAND OC Frequency 884.3 MHZ

 AIRPORT NEAR NAVIGATION AIDS
Type VORTAC Name Wake Island Frequency 113500 KHZ



Air Greece virtual AIrline - All rights reserved 2018 - Powered by Virtual Airlines Manager [v2.6.2]